createdAt,value
2019-02-15T00:02:39.383Z,5.10
2019-02-15T00:05:26.809Z,5.05
2019-02-15T00:08:14.537Z,5.04
2019-02-15T00:11:01.958Z,5.02
2019-02-15T00:13:49.073Z,5.00
2019-02-15T00:16:36.655Z,5.03
2019-02-15T00:19:25.767Z,5.00
2019-02-15T00:22:13.398Z,4.96
2019-02-15T00:25:00.933Z,4.94
2019-02-15T00:27:48.346Z,4.97
2019-02-15T00:30:36.077Z,5.01
2019-02-15T00:33:23.809Z,4.95
2019-02-15T00:36:11.233Z,4.90
2019-02-15T00:38:58.962Z,4.86
2019-02-15T00:41:46.592Z,4.86
2019-02-15T00:44:33.914Z,4.93
2019-02-15T00:47:25.644Z,4.86
2019-02-15T00:50:14.704Z,4.88
2019-02-15T00:53:20.148Z,4.85
2019-02-15T00:56:12.283Z,4.83
2019-02-15T00:59:01.453Z,4.76
2019-02-15T01:01:58.906Z,4.68
2019-02-15T01:04:54.322Z,4.69
2019-02-15T01:07:55.464Z,4.71
2019-02-15T01:10:44.425Z,4.65
2019-02-15T01:13:31.852Z,4.64
2019-02-15T01:16:18.964Z,4.60
2019-02-15T01:19:06.696Z,4.66
2019-02-15T01:21:54.123Z,4.67
2019-02-15T01:24:41.444Z,4.62
2019-02-15T01:27:33.274Z,4.62
2019-02-15T01:30:38.615Z,4.65
2019-02-15T01:33:27.879Z,4.65
2019-02-15T01:36:17.150Z,4.57
2019-02-15T01:39:12.662Z,4.54
2019-02-15T01:42:04.590Z,4.53
2019-02-15T01:44:53.345Z,4.54
2019-02-15T01:47:40.982Z,4.51
2019-02-15T01:50:28.603Z,4.53
2019-02-15T01:53:15.722Z,4.46
2019-02-15T01:56:03.362Z,4.49
2019-02-15T01:58:50.779Z,4.50
2019-02-15T02:01:37.991Z,4.51
2019-02-15T02:04:25.314Z,4.51
2019-02-15T02:07:12.639Z,4.54
2019-02-15T02:09:59.863Z,4.55
2019-02-15T02:12:47.277Z,4.49
2019-02-15T02:15:35.321Z,4.44
2019-02-15T02:18:22.900Z,4.37
2019-02-15T02:21:10.786Z,4.33
2019-02-15T02:23:58.409Z,4.31
2019-02-15T02:26:46.042Z,4.27
2019-02-15T02:29:33.467Z,4.27
2019-02-15T02:32:21.399Z,4.25
2019-02-15T02:35:09.501Z,4.23
2019-02-15T02:37:56.760Z,4.20
2019-02-15T02:40:44.171Z,4.21
2019-02-15T02:43:32.017Z,4.22
2019-02-15T02:46:19.338Z,4.17
2019-02-15T02:49:06.695Z,4.17
2019-02-15T02:51:54.185Z,4.18
2019-02-15T02:54:42.020Z,4.11
2019-02-15T02:57:29.551Z,4.08
2019-02-15T03:00:17.381Z,4.11
2019-02-15T03:03:04.711Z,4.10
2019-02-15T03:05:52.022Z,4.08
2019-02-15T03:08:39.549Z,4.05
2019-02-15T03:11:27.284Z,4.07
2019-02-15T03:14:14.807Z,4.08
2019-02-15T03:17:02.443Z,4.10
2019-02-15T03:19:49.553Z,4.14
2019-02-15T03:22:37.080Z,4.14
2019-02-15T03:25:24.608Z,4.12
2019-02-15T03:28:11.749Z,4.09
2019-02-15T03:30:59.177Z,4.08
2019-02-15T03:33:46.826Z,4.05
2019-02-15T03:36:54.578Z,4.04
2019-02-15T03:39:46.201Z,4.04
2019-02-15T03:42:33.627Z,3.53
2019-02-15T03:45:21.049Z,3.33
2019-02-15T03:48:08.471Z,3.49
2019-02-15T03:50:55.815Z,3.56
2019-02-15T03:53:43.532Z,3.65
2019-02-15T03:56:31.259Z,3.70
2019-02-15T03:59:18.810Z,3.75
2019-02-15T04:02:07.029Z,3.74
2019-02-15T04:04:54.802Z,3.72
2019-02-15T04:07:42.486Z,3.73
2019-02-15T04:10:30.221Z,3.75
2019-02-15T04:13:17.950Z,3.73
2019-02-15T04:16:05.375Z,3.69
2019-02-15T04:18:52.836Z,3.66
2019-02-15T04:21:40.356Z,2.78
2019-02-15T04:24:27.993Z,2.78
2019-02-15T04:27:16.232Z,2.90
2019-02-15T04:30:04.269Z,3.11
2019-02-15T04:32:51.795Z,3.23
2019-02-15T04:35:39.324Z,3.34
2019-02-15T04:38:27.056Z,3.28
2019-02-15T04:41:14.482Z,3.24
2019-02-15T04:44:02.618Z,3.25
2019-02-15T04:46:50.213Z,3.30
2019-02-15T04:49:38.082Z,3.21
2019-02-15T04:52:25.604Z,3.22
2019-02-15T04:55:13.234Z,3.24
2019-02-15T04:58:00.571Z,3.24
2019-02-15T05:00:48.196Z,3.25
2019-02-15T05:03:35.606Z,3.26
2019-02-15T05:06:23.136Z,3.27
2019-02-15T05:09:10.967Z,3.25
2019-02-15T05:11:58.431Z,3.24
2019-02-15T05:14:52.824Z,3.24
2019-02-15T05:17:34.879Z,3.26
2019-02-15T05:20:22.610Z,3.28
2019-02-15T05:23:10.240Z,3.26
2019-02-15T05:25:57.765Z,3.24
2019-02-15T05:28:45.189Z,3.17
2019-02-15T05:31:32.305Z,3.10
2019-02-15T05:34:20.039Z,3.09
2019-02-15T05:37:07.295Z,3.09
2019-02-15T05:39:54.478Z,3.07
2019-02-15T05:42:42.109Z,3.11
2019-02-15T05:45:29.835Z,3.14
2019-02-15T05:48:17.060Z,3.10
2019-02-15T05:51:04.481Z,3.07
2019-02-15T05:53:51.498Z,3.06
2019-02-15T05:56:39.123Z,3.10
2019-02-15T05:59:26.559Z,2.90
2019-02-15T06:02:14.006Z,2.55
2019-02-15T06:05:01.815Z,2.51
2019-02-15T06:07:48.920Z,2.66
2019-02-15T06:10:36.408Z,2.76
2019-02-15T06:13:23.772Z,2.80
2019-02-15T06:16:11.403Z,2.84
2019-02-15T06:18:58.410Z,2.86
2019-02-15T06:21:45.837Z,2.88
2019-02-15T06:24:33.775Z,2.85
2019-02-15T06:27:21.399Z,2.88
2019-02-15T06:30:09.996Z,2.89
2019-02-15T06:32:57.168Z,2.92
2019-02-15T06:35:45.211Z,2.94
2019-02-15T06:38:34.718Z,2.95
2019-02-15T06:41:21.598Z,2.93
2019-02-15T06:44:09.117Z,2.88
2019-02-15T06:46:56.750Z,2.90
2019-02-15T06:49:44.581Z,2.94
2019-02-15T06:55:37.732Z,2.92
2019-02-15T06:58:25.206Z,2.93
2019-02-15T07:01:17.423Z,2.97
2019-02-15T07:04:06.334Z,3.00
2019-02-15T07:06:55.036Z,2.96
2019-02-15T07:09:44.423Z,3.06
2019-02-15T07:12:31.827Z,3.17
2019-02-15T07:15:19.591Z,3.27
2019-02-15T07:18:08.522Z,3.34
2019-02-15T07:20:55.736Z,3.41
2019-02-15T07:23:43.264Z,3.43
2019-02-15T07:26:30.992Z,3.62
2019-02-15T07:29:18.313Z,3.77
2019-02-15T07:32:05.841Z,3.88
2019-02-15T07:34:53.369Z,4.06
2019-02-15T07:37:40.893Z,4.26
2019-02-15T07:40:28.318Z,4.47
2019-02-15T07:43:15.846Z,4.70
2019-02-15T07:46:03.370Z,4.89
2019-02-15T07:48:50.489Z,5.03
2019-02-15T07:51:38.114Z,5.29
2019-02-15T07:54:25.553Z,5.50
2019-02-15T07:57:13.377Z,5.77
2019-02-15T08:00:00.845Z,5.97
2019-02-15T08:02:48.125Z,5.92
2019-02-15T08:05:35.953Z,5.75
2019-02-15T08:08:23.492Z,5.50
2019-02-15T08:11:11.109Z,5.29
2019-02-15T08:13:58.530Z,4.72
2019-02-15T08:16:45.755Z,4.75
2019-02-15T08:19:33.076Z,5.41
2019-02-15T08:22:22.655Z,5.91
2019-02-15T08:25:10.177Z,6.03
2019-02-15T08:27:57.801Z,6.35
2019-02-15T08:30:45.122Z,6.70
2019-02-15T08:33:32.610Z,7.07
2019-02-15T08:36:20.075Z,7.51
2019-02-15T08:39:08.322Z,7.91
2019-02-15T08:42:01.350Z,8.27
2019-02-15T08:44:45.223Z,8.60
2019-02-15T08:47:32.533Z,9.03
2019-02-15T08:50:19.653Z,9.36
2019-02-15T08:53:07.283Z,9.67
2019-02-15T08:55:54.704Z,9.87
2019-02-15T08:58:42.341Z,10.05
2019-02-15T09:01:29.463Z,10.27
2019-02-15T09:04:17.183Z,10.63
2019-02-15T09:07:04.604Z,10.96
2019-02-15T09:09:52.233Z,11.24
2019-02-15T09:12:39.562Z,11.55
2019-02-15T09:15:26.880Z,11.66
2019-02-15T09:18:14.555Z,11.82
2019-02-15T09:21:01.827Z,11.82
2019-02-15T09:23:49.354Z,11.89
2019-02-15T09:26:37.955Z,11.98
2019-02-15T09:29:25.532Z,12.09
2019-02-15T09:32:13.059Z,12.35
2019-02-15T09:35:00.486Z,12.32
2019-02-15T09:37:48.131Z,12.48
2019-02-15T09:40:35.332Z,12.79
2019-02-15T09:43:22.655Z,13.08
2019-02-15T09:46:19.305Z,12.98
2019-02-15T09:48:59.142Z,12.67
2019-02-15T09:51:46.667Z,13.00
2019-02-15T09:54:33.889Z,13.24
2019-02-15T09:57:21.412Z,13.37
2019-02-15T10:00:10.766Z,13.20
2019-02-15T10:02:58.102Z,13.25
2019-02-15T10:05:45.426Z,13.48
2019-02-15T10:08:32.702Z,13.64
2019-02-15T10:11:20.276Z,13.53
2019-02-15T10:14:07.594Z,13.63
2019-02-15T10:16:54.711Z,13.73
2019-02-15T10:19:42.441Z,13.95
2019-02-15T10:22:29.562Z,14.05
2019-02-15T10:25:17.186Z,14.04
2019-02-15T10:28:05.328Z,13.25
2019-02-15T10:30:52.760Z,13.16
2019-02-15T10:33:39.767Z,12.58
2019-02-15T10:36:27.192Z,12.54
2019-02-15T10:39:15.134Z,13.06
2019-02-15T10:42:02.670Z,12.63
2019-02-15T10:44:49.982Z,12.44
2019-02-15T10:47:37.709Z,12.22
2019-02-15T10:50:25.237Z,12.27
2019-02-15T10:53:12.555Z,12.23
2019-02-15T10:56:00.184Z,12.92
2019-02-15T10:58:47.615Z,12.81
2019-02-15T11:01:35.542Z,13.01
2019-02-15T11:04:22.865Z,13.03
2019-02-15T11:07:10.391Z,12.64
2019-02-15T11:09:58.224Z,12.81
2019-02-15T11:12:45.649Z,12.83
2019-02-15T11:15:33.379Z,13.50
2019-02-15T11:18:20.805Z,13.97
2019-02-15T11:21:08.636Z,13.85
2019-02-15T11:23:55.961Z,13.81
2019-02-15T11:26:43.568Z,13.73
2019-02-15T11:29:31.012Z,13.83
2019-02-15T11:32:18.538Z,14.12
2019-02-15T11:35:11.594Z,14.64
2019-02-15T11:37:59.124Z,13.85
2019-02-15T11:40:46.446Z,13.67
2019-02-15T11:43:33.559Z,13.31
2019-02-15T11:46:20.885Z,13.45
2019-02-15T11:49:08.304Z,13.88
2019-02-15T11:51:56.090Z,14.31
2019-02-15T11:54:43.777Z,14.18
2019-02-15T11:57:30.782Z,13.96
2019-02-15T12:00:26.213Z,14.84
2019-02-15T12:03:13.838Z,15.01
2019-02-15T12:06:01.065Z,14.93
2019-02-15T12:08:48.587Z,15.49
2019-02-15T12:11:35.905Z,15.76
2019-02-15T12:14:23.227Z,15.29
2019-02-15T12:17:10.245Z,15.18
2019-02-15T12:19:57.566Z,15.18
2019-02-15T12:22:44.990Z,15.64
2019-02-15T12:25:32.675Z,15.39
2019-02-15T12:28:20.253Z,15.39
2019-02-15T12:31:07.674Z,15.56
2019-02-15T12:33:54.703Z,15.65
2019-02-15T12:36:41.808Z,15.75
2019-02-15T12:39:28.926Z,16.41
2019-02-15T12:42:16.345Z,16.41
2019-02-15T12:45:03.871Z,16.82
2019-02-15T12:47:51.400Z,16.78
2019-02-15T12:50:39.131Z,16.84
2019-02-15T12:53:26.654Z,17.30
2019-02-15T12:56:14.082Z,17.23
2019-02-15T12:59:02.016Z,16.33
2019-02-15T13:01:49.028Z,16.58
2019-02-15T13:04:36.452Z,16.83
2019-02-15T13:07:24.184Z,16.51
2019-02-15T13:10:16.820Z,16.48
2019-02-15T13:13:03.743Z,16.75
2019-02-15T13:15:51.064Z,17.30
2019-02-15T13:18:38.692Z,17.62
2019-02-15T13:21:25.911Z,17.92
2019-02-15T13:24:13.346Z,17.93
2019-02-15T13:27:00.863Z,17.72
2019-02-15T13:29:48.287Z,18.08
2019-02-15T13:32:35.608Z,18.06
2019-02-15T13:35:24.364Z,17.59
2019-02-15T13:38:11.791Z,17.24
2019-02-15T13:40:59.324Z,17.16
2019-02-15T13:43:46.947Z,16.98
2019-02-15T13:46:34.264Z,16.72
2019-02-15T13:49:21.283Z,16.41
2019-02-15T13:52:09.011Z,16.36
2019-02-15T13:54:56.152Z,16.75
2019-02-15T13:57:43.863Z,16.89
2019-02-15T14:00:31.290Z,16.72
2019-02-15T14:03:19.019Z,16.71
2019-02-15T14:06:06.439Z,16.97
2019-02-15T14:08:54.070Z,17.31
2019-02-15T14:11:41.697Z,17.32
2019-02-15T14:14:28.814Z,17.35
2019-02-15T14:17:16.239Z,16.75
2019-02-15T14:20:03.458Z,16.95
2019-02-15T14:22:50.677Z,16.92
2019-02-15T14:25:37.794Z,17.16
2019-02-15T14:28:25.118Z,17.28
2019-02-15T14:31:12.949Z,17.13
2019-02-15T14:34:00.581Z,16.95
2019-02-15T14:36:48.006Z,17.15
2019-02-15T14:39:35.355Z,17.05
2019-02-15T14:42:22.749Z,17.46
2019-02-15T14:45:11.607Z,17.66
2019-02-15T14:47:58.882Z,17.86
2019-02-15T14:50:46.825Z,18.05
2019-02-15T14:53:34.091Z,18.12
2019-02-15T14:56:21.201Z,18.14
2019-02-15T14:59:08.624Z,17.84
2019-02-15T15:01:56.051Z,17.90
2019-02-15T15:04:43.065Z,18.23
2019-02-15T15:07:30.591Z,18.36
2019-02-15T15:10:18.117Z,18.31
2019-02-15T15:13:05.644Z,18.15
2019-02-15T15:15:52.759Z,18.32
2019-02-15T15:18:40.495Z,18.41
2019-02-15T15:21:28.334Z,18.30
2019-02-15T15:24:15.544Z,18.38
2019-02-15T15:27:02.662Z,18.34
2019-02-15T15:29:50.628Z,18.37
2019-02-15T15:32:38.127Z,18.16
2019-02-15T15:35:25.552Z,18.22
2019-02-15T15:38:12.974Z,18.25
2019-02-15T15:41:00.815Z,18.29
2019-02-15T15:43:48.539Z,18.24
2019-02-15T15:46:35.860Z,18.13
2019-02-15T15:49:23.284Z,18.03
2019-02-15T15:52:10.623Z,17.91
2019-02-15T15:54:58.341Z,17.78
2019-02-15T15:57:45.458Z,17.65
2019-02-15T16:00:39.097Z,17.52
2019-02-15T16:03:22.151Z,17.35
2019-02-15T16:06:10.494Z,17.17
2019-02-15T16:08:58.121Z,17.01
2019-02-15T16:11:45.596Z,16.82
2019-02-15T16:14:32.969Z,16.61
2019-02-15T16:17:21.010Z,16.42
2019-02-15T16:20:10.763Z,16.24
2019-02-15T16:22:57.803Z,16.05
2019-02-15T16:25:45.226Z,15.85
2019-02-15T16:28:32.271Z,15.39
2019-02-15T16:31:19.667Z,15.39
2019-02-15T16:34:06.885Z,15.16
2019-02-15T16:36:53.901Z,15.03
2019-02-15T16:39:41.325Z,14.83
2019-02-15T16:42:28.956Z,14.60
2019-02-15T16:45:16.917Z,14.43
2019-02-15T16:48:04.322Z,14.29
2019-02-15T16:50:51.429Z,14.06
2019-02-15T16:53:39.267Z,13.98
2019-02-15T16:56:26.383Z,13.88
2019-02-15T16:59:13.702Z,13.63
2019-02-15T17:02:01.332Z,13.44
2019-02-15T17:04:48.348Z,13.30
2019-02-15T17:07:36.077Z,13.12
2019-02-15T17:10:23.604Z,12.93
2019-02-15T17:13:11.028Z,12.74
2019-02-15T17:15:58.661Z,12.52
2019-02-15T17:18:51.750Z,12.45
2019-02-15T17:21:35.559Z,12.34
2019-02-15T17:24:23.491Z,12.42
2019-02-15T17:27:10.405Z,12.44
2019-02-15T17:29:58.033Z,12.39
2019-02-15T17:32:45.561Z,12.40
2019-02-15T17:35:33.185Z,12.38
2019-02-15T17:38:20.610Z,12.32
2019-02-15T17:41:08.037Z,12.24
2019-02-15T17:43:55.263Z,12.15
2019-02-15T17:46:42.782Z,12.05
2019-02-15T17:49:30.251Z,11.89
2019-02-15T17:52:17.700Z,11.67
2019-02-15T17:55:06.610Z,11.47
2019-02-15T17:57:54.220Z,11.41
2019-02-15T18:00:41.848Z,11.38
2019-02-15T18:03:29.373Z,11.33
2019-02-15T18:06:16.697Z,11.27
2019-02-15T18:09:05.248Z,11.15
2019-02-15T18:11:52.576Z,11.02
2019-02-15T18:14:40.206Z,10.99
2019-02-15T18:17:28.033Z,10.94
2019-02-15T18:20:15.596Z,10.85
2019-02-15T18:23:03.291Z,10.90
2019-02-15T18:25:51.229Z,10.85
2019-02-15T18:28:38.859Z,10.78
2019-02-15T18:31:26.186Z,10.71
2019-02-15T18:34:13.910Z,10.56
2019-02-15T18:37:01.440Z,10.43
2019-02-15T18:39:49.101Z,10.34
2019-02-15T18:42:36.388Z,10.36
2019-02-15T18:45:23.913Z,10.28
2019-02-15T18:48:11.439Z,10.23
2019-02-15T18:50:59.076Z,10.21
2019-02-15T18:53:46.682Z,10.15
2019-02-15T18:56:34.409Z,10.14
2019-02-15T18:59:21.750Z,9.98
2019-02-15T19:02:09.381Z,9.78
2019-02-15T19:04:57.115Z,9.63
2019-02-15T19:07:44.844Z,9.52
2019-02-15T19:10:31.856Z,9.38
2019-02-15T19:13:19.284Z,9.28
2019-02-15T19:16:06.714Z,9.16
2019-02-15T19:18:54.129Z,8.98
2019-02-15T19:21:41.144Z,8.93
2019-02-15T19:24:28.776Z,8.78
2019-02-15T19:27:16.174Z,8.75
2019-02-15T19:30:04.953Z,8.61
2019-02-15T19:32:52.379Z,8.56
2019-02-15T19:35:39.801Z,8.45
2019-02-15T19:38:27.141Z,8.38
2019-02-15T19:41:14.651Z,8.26
2019-02-15T19:44:02.280Z,8.19
2019-02-15T19:46:49.804Z,8.10
2019-02-15T19:49:39.115Z,8.04
2019-02-15T19:52:25.782Z,8.05
2019-02-15T19:55:13.021Z,7.97
2019-02-15T19:58:00.728Z,7.78
2019-02-15T20:00:48.364Z,7.74
2019-02-15T20:03:35.941Z,7.70
2019-02-15T20:06:23.822Z,7.61
2019-02-15T20:09:11.354Z,7.59
2019-02-15T20:11:58.782Z,7.54
2019-02-15T20:14:46.095Z,7.52
2019-02-15T20:17:33.521Z,7.42
2019-02-15T20:20:20.848Z,7.37
2019-02-15T20:23:14.455Z,7.25
2019-02-15T20:26:01.627Z,7.31
2019-02-15T20:28:49.358Z,7.24
2019-02-15T20:31:36.584Z,7.06
2019-02-15T20:34:24.109Z,6.99
2019-02-15T20:37:11.549Z,6.98
2019-02-15T20:39:58.661Z,6.86
2019-02-15T20:42:46.070Z,6.82
2019-02-15T20:45:33.187Z,6.83
2019-02-15T20:48:20.719Z,6.91
2019-02-15T20:51:08.044Z,6.89
2019-02-15T20:53:55.915Z,6.81
2019-02-15T20:56:43.096Z,6.76
2019-02-15T20:59:30.620Z,6.73
2019-02-15T21:02:19.282Z,6.73
2019-02-15T21:05:08.995Z,6.70
2019-02-15T21:07:56.575Z,6.62
2019-02-15T21:10:44.004Z,6.59
2019-02-15T21:13:32.966Z,6.48
2019-02-15T21:16:20.279Z,6.48
2019-02-15T21:19:07.803Z,6.45
2019-02-15T21:22:01.351Z,6.35
2019-02-15T21:24:49.845Z,6.35
2019-02-15T21:27:37.452Z,6.37
2019-02-15T21:30:24.978Z,6.31
2019-02-15T21:33:12.610Z,6.35
2019-02-15T21:36:00.337Z,6.32
2019-02-15T21:38:47.562Z,6.29
2019-02-15T21:41:34.879Z,6.21
2019-02-15T21:44:22.317Z,6.15
2019-02-15T21:47:10.136Z,6.09
2019-02-15T21:49:57.767Z,6.10
2019-02-15T21:52:45.090Z,6.06
2019-02-15T21:55:32.840Z,6.00
2019-02-15T21:58:20.148Z,5.96
2019-02-15T22:01:07.770Z,5.96
2019-02-15T22:03:55.502Z,5.90
2019-02-15T22:06:42.934Z,5.88
2019-02-15T22:09:30.968Z,5.81
2019-02-15T22:12:18.595Z,5.78
2019-02-15T22:15:08.783Z,5.70
2019-02-15T22:17:56.107Z,5.70
2019-02-15T22:20:43.844Z,5.69
2019-02-15T22:23:31.369Z,5.67
2019-02-15T22:26:19.488Z,5.64
2019-02-15T22:29:06.826Z,5.56
2019-02-15T22:31:54.669Z,5.53
2019-02-15T22:34:42.288Z,5.53
2019-02-15T22:37:29.819Z,5.57
2019-02-15T22:40:35.061Z,5.51
2019-02-15T22:43:23.307Z,5.49
2019-02-15T22:46:10.827Z,5.44
2019-02-15T22:48:58.490Z,5.45
2019-02-15T22:51:46.084Z,5.39
2019-02-15T22:54:33.917Z,5.33
2019-02-15T22:57:21.550Z,5.30
2019-02-15T23:00:29.042Z,5.29
2019-02-15T23:03:17.920Z,5.25
2019-02-15T23:06:05.014Z,5.19
2019-02-15T23:08:52.540Z,5.13
2019-02-15T23:11:40.065Z,5.10
2019-02-15T23:14:27.797Z,5.10
2019-02-15T23:17:15.224Z,5.06
2019-02-15T23:20:02.543Z,5.03
2019-02-15T23:22:49.967Z,5.02
2019-02-15T23:25:37.506Z,4.99
2019-02-15T23:28:29.629Z,5.05
2019-02-15T23:31:17.360Z,5.02
2019-02-15T23:34:04.478Z,5.01
2019-02-15T23:36:52.003Z,5.00
2019-02-15T23:39:39.739Z,4.99
2019-02-15T23:42:27.265Z,4.95
2019-02-15T23:45:16.898Z,4.92
2019-02-15T23:48:04.362Z,4.89
2019-02-15T23:50:54.877Z,4.85
2019-02-15T23:53:40.748Z,4.83
2019-02-15T23:56:28.274Z,4.87
2019-02-15T23:59:15.698Z,4.85
